createdAt,value
2023-05-19T00:02:09.448Z,63.01
2023-05-19T00:04:37.136Z,62.87
2023-05-19T00:07:05.716Z,63.12
2023-05-19T00:09:32.829Z,63.16
2023-05-19T00:11:59.900Z,63.64
2023-05-19T00:14:26.979Z,63.79
2023-05-19T00:16:56.062Z,63.87
2023-05-19T00:19:24.603Z,63.89
2023-05-19T00:21:51.781Z,64.06
2023-05-19T00:24:18.629Z,63.90
2023-05-19T00:26:45.574Z,63.89
2023-05-19T00:29:13.268Z,64.15
2023-05-19T00:31:40.289Z,64.21
2023-05-19T00:34:09.265Z,64.40
2023-05-19T00:36:36.088Z,64.78
2023-05-19T00:39:03.691Z,65.31
2023-05-19T00:41:30.515Z,65.42
2023-05-19T00:43:57.758Z,65.76
2023-05-19T00:46:25.016Z,65.93
2023-05-19T00:48:51.858Z,65.90
2023-05-19T00:51:19.080Z,65.97
2023-05-19T00:53:49.325Z,65.74
2023-05-19T00:56:17.086Z,66.06
2023-05-19T00:58:44.541Z,65.93
2023-05-19T01:01:17.317Z,65.77
2023-05-19T01:03:45.212Z,65.61
2023-05-19T01:06:12.371Z,65.60
2023-05-19T01:08:39.556Z,65.39
2023-05-19T01:11:07.932Z,65.51
2023-05-19T01:13:36.378Z,65.49
2023-05-19T01:16:56.930Z,65.42
2023-05-19T01:19:46.756Z,65.32
2023-05-19T01:22:32.732Z,65.60
2023-05-19T01:25:02.938Z,65.63
2023-05-19T01:28:01.330Z,65.89
2023-05-19T01:30:39.145Z,66.00
2023-05-19T01:33:08.640Z,66.37
2023-05-19T01:35:37.442Z,66.34
2023-05-19T01:38:05.512Z,66.00
2023-05-19T01:40:34.396Z,66.45
2023-05-19T01:43:02.239Z,67.07
2023-05-19T01:45:31.110Z,67.28
2023-05-19T01:48:00.480Z,67.40
2023-05-19T01:50:28.116Z,67.61
2023-05-19T01:52:55.284Z,67.34
2023-05-19T01:55:25.235Z,67.31
2023-05-19T01:58:17.683Z,67.64
2023-05-19T02:00:51.553Z,67.54
2023-05-19T02:03:33.422Z,67.68
2023-05-19T02:06:21.887Z,67.30
2023-05-19T02:09:02.399Z,67.19
2023-05-19T02:11:54.851Z,67.04
2023-05-19T02:14:35.745Z,67.13
2023-05-19T02:17:05.062Z,66.89
2023-05-19T02:19:34.607Z,66.41
2023-05-19T02:22:01.456Z,66.40
2023-05-19T02:24:28.353Z,66.42
2023-05-19T02:26:55.366Z,66.27
2023-05-19T02:29:22.395Z,66.26
2023-05-19T02:31:50.579Z,65.84
2023-05-19T02:34:19.087Z,65.64
2023-05-19T02:36:45.937Z,65.90
2023-05-19T02:39:13.031Z,65.65
2023-05-19T02:41:39.882Z,65.81
2023-05-19T02:44:07.692Z,65.76
2023-05-19T02:46:36.316Z,65.70
2023-05-19T02:49:03.953Z,65.47
2023-05-19T02:51:30.782Z,65.75
2023-05-19T02:53:57.695Z,65.88
2023-05-19T02:56:24.605Z,65.67
2023-05-19T02:58:52.719Z,65.87
2023-05-19T03:01:22.180Z,65.68
2023-05-19T03:03:49.339Z,65.71
2023-05-19T03:06:18.016Z,65.75
2023-05-19T03:08:45.146Z,65.59
2023-05-19T03:11:12.189Z,65.73
2023-05-19T03:13:39.026Z,65.85
2023-05-19T03:16:08.265Z,65.82
2023-05-19T03:18:36.137Z,65.82
2023-05-19T03:21:03.186Z,65.27
2023-05-19T03:23:30.442Z,65.40
2023-05-19T03:25:57.935Z,65.05
2023-05-19T03:28:24.717Z,65.04
2023-05-19T03:30:51.660Z,64.97
2023-05-19T03:33:22.395Z,64.76
2023-05-19T03:35:49.764Z,64.75
2023-05-19T03:38:17.050Z,64.75
2023-05-19T03:40:51.259Z,64.68
2023-05-19T03:43:18.094Z,64.58
2023-05-19T03:45:51.077Z,64.52
2023-05-19T03:48:36.559Z,64.82
2023-05-19T03:51:38.690Z,64.83
2023-05-19T03:54:31.839Z,64.96
2023-05-19T03:56:58.805Z,64.83
2023-05-19T03:59:25.972Z,65.17
2023-05-19T04:01:53.020Z,65.55
2023-05-19T04:04:20.071Z,65.50
2023-05-19T04:06:46.976Z,65.52
2023-05-19T04:09:15.934Z,65.31
2023-05-19T04:11:43.305Z,65.88
2023-05-19T04:14:10.225Z,65.72
2023-05-19T04:16:37.453Z,65.90
2023-05-19T04:19:04.275Z,66.33
2023-05-19T04:21:31.164Z,66.00
2023-05-19T04:24:00.062Z,66.20
2023-05-19T04:26:30.887Z,66.69
2023-05-19T04:28:57.771Z,66.97
2023-05-19T04:31:24.797Z,66.99
2023-05-19T04:33:53.536Z,66.87
2023-05-19T04:36:21.759Z,67.17
2023-05-19T04:38:54.904Z,67.30
2023-05-19T04:41:24.504Z,67.37
2023-05-19T04:43:51.339Z,67.43
2023-05-19T04:46:24.352Z,67.20
2023-05-19T04:48:55.391Z,66.99
2023-05-19T04:51:22.233Z,66.70
2023-05-19T04:53:49.153Z,66.74
2023-05-19T04:56:16.059Z,66.17
2023-05-19T04:58:44.929Z,65.72
2023-05-19T05:01:13.941Z,65.98
2023-05-19T05:03:42.147Z,65.89
2023-05-19T05:06:11.713Z,66.30
2023-05-19T05:08:40.481Z,66.71
2023-05-19T05:11:07.781Z,66.38
2023-05-19T05:13:34.929Z,66.22
2023-05-19T05:16:02.124Z,66.14
2023-05-19T05:18:29.333Z,66.30
2023-05-19T05:20:56.454Z,66.41
2023-05-19T05:23:24.921Z,66.48
2023-05-19T05:25:52.010Z,66.35
2023-05-19T05:28:19.194Z,66.33
2023-05-19T05:30:47.566Z,66.05
2023-05-19T05:33:15.427Z,65.89
2023-05-19T05:35:42.347Z,65.74
2023-05-19T05:38:11.650Z,65.53
2023-05-19T05:40:38.927Z,65.75
2023-05-19T05:43:06.254Z,65.62
2023-05-19T05:45:37.673Z,65.29
2023-05-19T05:48:05.771Z,65.45
2023-05-19T05:50:33.898Z,65.39
2023-05-19T05:53:03.810Z,65.28
2023-05-19T05:55:31.074Z,65.43
2023-05-19T05:58:02.102Z,65.50
2023-05-19T06:00:30.012Z,65.57
2023-05-19T06:02:57.380Z,66.07
2023-05-19T06:05:26.158Z,65.95
2023-05-19T06:07:54.304Z,66.13
2023-05-19T06:10:25.048Z,66.09
2023-05-19T06:12:53.464Z,65.98
2023-05-19T06:15:22.373Z,66.15
2023-05-19T06:17:54.863Z,65.79
2023-05-19T06:20:33.519Z,65.23
2023-05-19T06:23:01.073Z,65.48
2023-05-19T06:25:29.230Z,65.00
2023-05-19T06:27:57.337Z,65.26
2023-05-19T06:30:24.494Z,65.82
2023-05-19T06:33:11.949Z,65.68
2023-05-19T06:35:38.860Z,65.65
2023-05-19T06:38:05.763Z,65.36
2023-05-19T06:40:33.015Z,64.74
2023-05-19T06:42:59.945Z,64.25
2023-05-19T06:45:52.899Z,63.54
2023-05-19T06:48:19.794Z,63.09
2023-05-19T06:50:47.649Z,62.48
2023-05-19T06:53:14.515Z,61.74
2023-05-19T06:55:54.423Z,61.46
2023-05-19T06:58:27.881Z,61.45
2023-05-19T07:00:56.905Z,60.83
2023-05-19T07:03:27.692Z,59.89
2023-05-19T07:05:55.453Z,60.17
2023-05-19T07:08:22.646Z,59.29
2023-05-19T07:10:49.565Z,58.81
2023-05-19T07:13:17.238Z,58.43
2023-05-19T07:15:44.151Z,58.65
2023-05-19T07:18:11.063Z,57.70
2023-05-19T07:20:37.975Z,57.18
2023-05-19T07:23:05.498Z,56.82
2023-05-19T07:25:33.352Z,57.48
2023-05-19T07:28:00.331Z,55.95
2023-05-19T07:30:28.704Z,54.85
2023-05-19T07:32:56.114Z,54.87
2023-05-19T07:35:23.104Z,54.43
2023-05-19T07:37:50.181Z,55.06
2023-05-19T07:40:17.247Z,55.03
2023-05-19T07:42:44.649Z,54.76
2023-05-19T07:45:11.825Z,54.71
2023-05-19T07:47:38.599Z,54.48
2023-05-19T07:50:06.147Z,53.76
2023-05-19T07:52:33.043Z,54.46
2023-05-19T07:54:59.902Z,53.75
2023-05-19T07:57:26.834Z,52.57
2023-05-19T07:59:53.660Z,52.48
2023-05-19T08:02:20.593Z,52.77
2023-05-19T08:04:49.594Z,52.70
2023-05-19T08:07:16.431Z,52.67
2023-05-19T08:09:43.180Z,50.04
2023-05-19T08:12:10.019Z,50.05
2023-05-19T08:14:37.494Z,49.13
2023-05-19T08:17:04.284Z,48.18
2023-05-19T08:19:31.182Z,48.66
2023-05-19T08:22:01.160Z,50.00
2023-05-19T08:24:32.739Z,50.21
2023-05-19T08:26:59.717Z,51.45
2023-05-19T08:29:26.531Z,54.48
2023-05-19T08:31:53.524Z,56.16
2023-05-19T08:34:20.869Z,57.40
2023-05-19T08:36:47.894Z,58.01
2023-05-19T08:39:16.322Z,57.98
2023-05-19T08:41:43.356Z,58.63
2023-05-19T08:44:10.198Z,58.89
2023-05-19T08:46:37.280Z,58.28
2023-05-19T08:49:12.176Z,58.03
2023-05-19T08:52:01.844Z,58.22
2023-05-19T08:54:40.074Z,58.48
2023-05-19T08:57:08.097Z,58.92
2023-05-19T08:59:35.140Z,58.53
2023-05-19T09:02:03.732Z,58.46
2023-05-19T09:04:31.153Z,58.38
2023-05-19T09:06:58.897Z,59.07
2023-05-19T09:09:25.842Z,59.65
2023-05-19T09:11:53.020Z,59.40
2023-05-19T09:14:19.764Z,59.00
2023-05-19T09:16:49.919Z,58.58
2023-05-19T09:19:17.161Z,58.49
2023-05-19T09:21:45.907Z,58.52
2023-05-19T09:24:12.851Z,58.83
2023-05-19T09:26:42.086Z,58.70
2023-05-19T09:29:18.681Z,58.95
2023-05-19T09:31:52.076Z,58.79
2023-05-19T09:34:19.633Z,58.47
2023-05-19T09:36:49.738Z,59.48
2023-05-19T09:39:17.525Z,59.39
2023-05-19T09:41:45.296Z,58.92
2023-05-19T09:44:21.195Z,58.90
2023-05-19T09:46:52.919Z,58.98
2023-05-19T09:49:21.979Z,58.69
2023-05-19T09:51:56.657Z,58.87
2023-05-19T09:54:24.766Z,58.74
2023-05-19T09:57:02.415Z,57.99
2023-05-19T09:59:33.025Z,58.65
2023-05-19T10:02:02.316Z,58.89
2023-05-19T10:05:01.460Z,58.71
2023-05-19T10:07:28.781Z,58.34
2023-05-19T10:09:58.518Z,58.58
2023-05-19T10:12:26.637Z,58.30
2023-05-19T10:15:13.664Z,58.01
2023-05-19T10:17:42.326Z,57.67
2023-05-19T10:20:12.777Z,56.87
2023-05-19T10:22:44.032Z,56.56
2023-05-19T10:25:13.195Z,56.43
2023-05-19T10:27:46.679Z,56.11
2023-05-19T10:30:21.822Z,55.75
2023-05-19T10:32:49.488Z,55.34
2023-05-19T10:35:37.961Z,55.05
2023-05-19T10:38:23.787Z,54.82
2023-05-19T10:41:01.125Z,54.24
2023-05-19T10:43:45.064Z,53.83
2023-05-19T10:46:12.071Z,53.75
2023-05-19T10:48:44.074Z,53.79
2023-05-19T10:51:12.335Z,53.60
2023-05-19T10:53:50.175Z,53.71
2023-05-19T10:56:32.851Z,52.82
2023-05-19T10:59:00.153Z,52.33
2023-05-19T11:01:32.366Z,52.52
2023-05-19T11:04:06.146Z,52.14
2023-05-19T11:06:35.680Z,51.66
2023-05-19T11:09:22.579Z,52.04
2023-05-19T11:11:55.429Z,51.51
2023-05-19T11:14:26.190Z,50.71
2023-05-19T11:16:57.513Z,50.02
2023-05-19T11:19:27.810Z,50.30
2023-05-19T11:21:55.529Z,50.92
2023-05-19T11:24:40.673Z,50.80
2023-05-19T11:27:32.894Z,50.68
2023-05-19T11:30:01.914Z,49.45
2023-05-19T11:32:33.676Z,48.66
2023-05-19T11:35:00.995Z,49.50
2023-05-19T11:37:32.157Z,49.85
2023-05-19T11:40:02.009Z,50.68
2023-05-19T11:42:28.940Z,50.72
2023-05-19T11:44:56.350Z,51.19
2023-05-19T11:47:23.401Z,51.79
2023-05-19T11:49:57.905Z,52.33
2023-05-19T11:52:25.658Z,52.43
2023-05-19T11:54:52.574Z,52.10
2023-05-19T11:57:19.678Z,53.43
2023-05-19T11:59:48.358Z,55.09
2023-05-19T12:02:27.786Z,55.23
2023-05-19T12:04:54.955Z,53.91
2023-05-19T12:07:26.110Z,54.81
2023-05-19T12:09:55.441Z,55.74
2023-05-19T12:12:23.225Z,55.26
2023-05-19T12:14:51.439Z,54.41
2023-05-19T12:17:20.484Z,54.05
2023-05-19T12:19:48.775Z,54.80
2023-05-19T12:22:19.300Z,54.95
2023-05-19T12:24:47.288Z,53.26
2023-05-19T12:27:19.662Z,52.93
2023-05-19T12:30:00.261Z,53.11
2023-05-19T12:32:28.778Z,53.35
2023-05-19T12:34:56.585Z,54.44
2023-05-19T12:37:27.699Z,54.12
2023-05-19T12:39:56.270Z,53.93
2023-05-19T12:42:23.804Z,54.12
2023-05-19T12:44:52.580Z,55.32
2023-05-19T12:47:20.501Z,54.88
2023-05-19T12:49:59.386Z,54.69
2023-05-19T12:52:29.334Z,54.73
2023-05-19T12:54:59.989Z,54.07
2023-05-19T12:57:28.276Z,52.01
2023-05-19T13:00:00.836Z,50.71
2023-05-19T13:02:27.917Z,51.09
2023-05-19T13:04:54.797Z,50.75
2023-05-19T13:07:22.111Z,48.88
2023-05-19T13:09:49.964Z,49.72
2023-05-19T13:12:16.843Z,48.58
2023-05-19T13:14:44.721Z,47.32
2023-05-19T13:17:11.801Z,47.24
2023-05-19T13:19:38.697Z,47.00
2023-05-19T13:22:06.782Z,46.67
2023-05-19T13:24:33.556Z,46.25
2023-05-19T13:27:00.375Z,46.19
2023-05-19T13:29:28.332Z,45.31
2023-05-19T13:31:55.123Z,45.86
2023-05-19T13:34:21.918Z,45.73
2023-05-19T13:36:49.038Z,45.81
2023-05-19T13:39:16.345Z,46.83
2023-05-19T13:41:43.144Z,46.25
2023-05-19T13:44:10.034Z,46.52
2023-05-19T13:46:44.784Z,45.81
2023-05-19T13:49:12.788Z,45.79
2023-05-19T13:51:42.667Z,46.27
2023-05-19T13:54:10.171Z,46.51
2023-05-19T13:56:37.234Z,46.14
2023-05-19T13:59:04.232Z,46.18
2023-05-19T14:01:31.340Z,46.09
2023-05-19T14:03:58.435Z,45.58
2023-05-19T14:06:25.525Z,46.16
2023-05-19T14:08:52.276Z,47.18
2023-05-19T14:11:20.168Z,47.71
2023-05-19T14:13:50.582Z,48.06
2023-05-19T14:16:20.466Z,49.09
2023-05-19T14:18:47.479Z,48.68
2023-05-19T14:21:15.991Z,48.57
2023-05-19T14:23:42.853Z,49.07
2023-05-19T14:26:09.710Z,49.00
2023-05-19T14:28:36.585Z,48.06
2023-05-19T14:31:03.425Z,48.06
2023-05-19T14:33:34.882Z,48.09
2023-05-19T14:36:02.390Z,48.16
2023-05-19T14:38:29.685Z,47.69
2023-05-19T14:40:57.140Z,46.28
2023-05-19T14:43:24.258Z,46.34
2023-05-19T14:45:51.163Z,46.08
2023-05-19T14:48:18.437Z,46.25
2023-05-19T14:50:48.357Z,45.66
2023-05-19T14:53:15.512Z,45.59
2023-05-19T14:55:43.005Z,46.03
2023-05-19T14:58:23.677Z,45.93
2023-05-19T15:00:54.138Z,45.96
2023-05-19T15:03:23.258Z,46.09
2023-05-19T15:05:50.145Z,46.15
2023-05-19T15:08:17.144Z,46.35
2023-05-19T15:10:48.041Z,46.47
2023-05-19T15:13:14.915Z,46.13
2023-05-19T15:15:41.710Z,46.44
2023-05-19T15:18:08.502Z,46.54
2023-05-19T15:20:35.607Z,47.21
2023-05-19T15:23:02.571Z,47.05
2023-05-19T15:25:30.114Z,47.18
2023-05-19T15:27:57.009Z,47.33
2023-05-19T15:30:23.784Z,46.98
2023-05-19T15:32:50.726Z,47.23
2023-05-19T15:35:17.452Z,47.55
2023-05-19T15:37:44.264Z,47.56
2023-05-19T15:40:11.650Z,48.42
2023-05-19T15:42:38.475Z,48.43
2023-05-19T15:45:07.127Z,47.73
2023-05-19T15:47:33.946Z,48.73
2023-05-19T15:50:00.742Z,49.02
2023-05-19T15:52:27.753Z,49.52
2023-05-19T15:54:55.323Z,49.98
2023-05-19T15:57:22.093Z,50.79
2023-05-19T15:59:48.898Z,51.80
2023-05-19T16:02:15.962Z,54.51
2023-05-19T16:04:42.797Z,55.62
2023-05-19T16:07:09.514Z,57.66
2023-05-19T16:09:36.289Z,59.18
2023-05-19T16:12:03.129Z,58.66
2023-05-19T16:14:33.274Z,60.00
2023-05-19T16:17:02.746Z,59.42
2023-05-19T16:19:29.730Z,58.75
2023-05-19T16:21:56.600Z,58.92
2023-05-19T16:24:23.399Z,60.03
2023-05-19T16:26:53.156Z,60.95
2023-05-19T16:29:20.056Z,60.00
2023-05-19T16:31:46.926Z,59.77
2023-05-19T16:34:13.865Z,60.03
2023-05-19T16:36:40.700Z,60.95
2023-05-19T16:39:07.547Z,61.71
2023-05-19T16:41:34.346Z,61.65
2023-05-19T16:44:02.373Z,62.23
2023-05-19T16:46:29.968Z,61.74
2023-05-19T16:48:58.159Z,61.69
2023-05-19T16:51:24.965Z,61.15
2023-05-19T16:53:51.805Z,61.59
2023-05-19T16:56:18.649Z,62.22
2023-05-19T16:58:45.577Z,61.55
2023-05-19T17:01:12.538Z,62.09
2023-05-19T17:03:39.451Z,62.73
2023-05-19T17:06:06.560Z,63.34
2023-05-19T17:08:33.356Z,62.61
2023-05-19T17:11:00.185Z,62.77
2023-05-19T17:13:28.782Z,63.11
2023-05-19T17:15:55.739Z,63.14
2023-05-19T17:18:22.554Z,63.13
2023-05-19T17:20:49.336Z,62.16
2023-05-19T17:23:16.196Z,61.70
2023-05-19T17:25:43.050Z,61.30
2023-05-19T17:28:09.946Z,61.37
2023-05-19T17:30:39.696Z,61.78
2023-05-19T17:33:06.647Z,61.93
2023-05-19T17:35:33.914Z,62.09
2023-05-19T17:38:00.814Z,62.53
2023-05-19T17:40:28.427Z,63.12
2023-05-19T17:42:55.227Z,61.05
2023-05-19T17:45:22.128Z,62.04
2023-05-19T17:47:48.935Z,62.66
2023-05-19T17:50:15.841Z,63.09
2023-05-19T17:52:43.182Z,62.42
2023-05-19T17:55:11.629Z,62.78
2023-05-19T17:57:43.745Z,63.05
2023-05-19T18:00:11.378Z,63.16
2023-05-19T18:02:38.764Z,63.20
2023-05-19T18:05:06.147Z,62.43
2023-05-19T18:07:33.082Z,61.99
2023-05-19T18:10:01.480Z,61.08
2023-05-19T18:12:28.310Z,61.01
2023-05-19T18:14:55.130Z,61.36
2023-05-19T18:17:21.997Z,61.67
2023-05-19T18:19:49.456Z,61.38
2023-05-19T18:22:17.588Z,61.61
2023-05-19T18:24:44.410Z,61.68
2023-05-19T18:27:11.213Z,60.87
2023-05-19T18:29:38.247Z,61.08
2023-05-19T18:32:05.451Z,60.56
2023-05-19T18:34:32.279Z,61.03
2023-05-19T18:36:59.048Z,61.97
2023-05-19T18:39:27.277Z,62.80
2023-05-19T18:41:56.066Z,63.35
2023-05-19T18:44:22.956Z,62.77
2023-05-19T18:46:49.846Z,63.38
2023-05-19T18:49:17.267Z,64.50
2023-05-19T18:51:44.143Z,64.95
2023-05-19T18:54:12.443Z,65.20
2023-05-19T18:56:43.460Z,64.37
2023-05-19T18:59:10.302Z,61.92
2023-05-19T19:01:39.657Z,62.10
2023-05-19T19:04:06.619Z,62.03
2023-05-19T19:06:33.508Z,62.05
2023-05-19T19:09:00.270Z,61.67
2023-05-19T19:11:27.731Z,62.08
2023-05-19T19:13:56.423Z,62.26
2023-05-19T19:16:24.739Z,61.37
2023-05-19T19:18:54.185Z,61.45
2023-05-19T19:21:24.094Z,60.95
2023-05-19T19:23:53.333Z,60.95
2023-05-19T19:26:20.869Z,60.80
2023-05-19T19:28:47.584Z,60.45
2023-05-19T19:31:14.381Z,59.70
2023-05-19T19:33:43.420Z,59.93
2023-05-19T19:36:11.379Z,60.45
2023-05-19T19:38:38.410Z,60.20
2023-05-19T19:41:05.341Z,60.21
2023-05-19T19:43:32.388Z,60.94
2023-05-19T19:46:04.428Z,61.38
2023-05-19T19:48:31.347Z,62.14
2023-05-19T19:50:58.242Z,63.52
2023-05-19T19:53:25.141Z,64.56
2023-05-19T19:55:59.525Z,64.35
2023-05-19T19:58:29.785Z,64.71
2023-05-19T20:00:58.451Z,64.31
2023-05-19T20:03:25.612Z,64.08
2023-05-19T20:05:54.951Z,65.19
2023-05-19T20:08:22.209Z,66.64
2023-05-19T20:10:49.500Z,66.75
2023-05-19T20:13:16.779Z,66.52
2023-05-19T20:15:44.296Z,66.69
2023-05-19T20:18:11.705Z,66.89
2023-05-19T20:20:39.708Z,67.20
2023-05-19T20:23:07.823Z,68.85
2023-05-19T20:25:50.150Z,69.92
2023-05-19T20:28:25.995Z,70.50
2023-05-19T20:30:52.818Z,71.13
2023-05-19T20:33:19.627Z,71.60
2023-05-19T20:35:46.504Z,71.43
2023-05-19T20:38:13.335Z,72.58
2023-05-19T20:40:40.098Z,72.63
2023-05-19T20:43:06.937Z,72.26
2023-05-19T20:45:33.930Z,72.25
2023-05-19T20:48:02.738Z,71.72
2023-05-19T20:50:29.841Z,71.48
2023-05-19T20:52:56.665Z,70.68
2023-05-19T20:55:23.499Z,70.13
2023-05-19T20:57:50.409Z,70.44
2023-05-19T21:00:17.548Z,71.55
2023-05-19T21:02:44.634Z,70.56
2023-05-19T21:05:11.682Z,70.91
2023-05-19T21:07:38.654Z,71.89
2023-05-19T21:10:06.353Z,71.33
2023-05-19T21:12:34.390Z,70.75
2023-05-19T21:15:02.174Z,71.04
2023-05-19T21:17:29.522Z,71.22
2023-05-19T21:19:59.517Z,71.23
2023-05-19T21:22:26.780Z,70.98
2023-05-19T21:24:57.161Z,71.15
2023-05-19T21:27:24.081Z,70.77
2023-05-19T21:29:54.284Z,70.82
2023-05-19T21:32:21.763Z,70.13
2023-05-19T21:34:48.742Z,68.92
2023-05-19T21:37:17.290Z,69.32
2023-05-19T21:39:44.796Z,69.45
2023-05-19T21:42:11.567Z,69.48
2023-05-19T21:44:38.366Z,69.32
2023-05-19T21:47:05.223Z,69.30
2023-05-19T21:49:32.034Z,69.76
2023-05-19T21:51:58.916Z,69.79
2023-05-19T21:54:25.853Z,69.96
2023-05-19T21:56:52.667Z,70.04
2023-05-19T21:59:23.161Z,69.97
2023-05-19T22:01:50.435Z,70.51
2023-05-19T22:04:18.682Z,71.36
2023-05-19T22:06:54.015Z,71.63
2023-05-19T22:09:21.762Z,71.81
2023-05-19T22:11:48.532Z,72.21
2023-05-19T22:14:16.518Z,72.45
2023-05-19T22:16:43.565Z,72.45
2023-05-19T22:19:11.802Z,72.59
2023-05-19T22:21:38.637Z,72.61
2023-05-19T22:24:05.521Z,73.23
2023-05-19T22:26:32.358Z,73.69
2023-05-19T22:28:59.159Z,74.05
2023-05-19T22:31:25.950Z,74.26
2023-05-19T22:33:52.762Z,74.64
2023-05-19T22:36:22.018Z,75.15
2023-05-19T22:38:51.240Z,75.77
2023-05-19T22:41:17.982Z,76.20
2023-05-19T22:43:47.800Z,76.26
2023-05-19T22:46:14.694Z,76.53
2023-05-19T22:48:41.540Z,76.80
2023-05-19T22:51:08.495Z,76.94
2023-05-19T22:53:35.273Z,77.06
2023-05-19T22:56:02.097Z,77.55
2023-05-19T22:58:28.891Z,77.37
2023-05-19T23:00:56.186Z,77.81
2023-05-19T23:03:23.233Z,77.71
2023-05-19T23:05:50.017Z,77.64
2023-05-19T23:08:16.809Z,77.99
2023-05-19T23:10:44.143Z,78.17
2023-05-19T23:13:11.966Z,77.93
2023-05-19T23:15:38.776Z,78.08
2023-05-19T23:18:07.446Z,78.61
2023-05-19T23:20:35.060Z,78.69
2023-05-19T23:23:01.892Z,78.61
2023-05-19T23:25:28.837Z,78.74
2023-05-19T23:27:56.009Z,78.40
2023-05-19T23:30:22.790Z,78.21
2023-05-19T23:32:49.701Z,77.44
2023-05-19T23:35:17.606Z,77.67
2023-05-19T23:37:44.630Z,77.66
2023-05-19T23:40:11.999Z,77.07
2023-05-19T23:42:38.931Z,77.54
2023-05-19T23:45:09.037Z,76.99
2023-05-19T23:47:36.006Z,76.87
2023-05-19T23:50:03.015Z,76.51
2023-05-19T23:52:29.921Z,76.82
2023-05-19T23:54:56.793Z,76.86
2023-05-19T23:57:23.568Z,78.06
2023-05-19T23:59:50.404Z,77.13
